sensor_id;sensor_type;location;lat;lon;timestamp;pressure;altitude;pressure_sealevel;temperature;humidity
37202;BME280;37799;52.390;6.136;2023-01-31T00:01:13;102303.88;;;2.86;100.00
37202;BME280;37799;52.390;6.136;2023-01-31T00:03:40;102314.19;;;2.87;100.00
37202;BME280;37799;52.390;6.136;2023-01-31T00:06:17;102319.28;;;2.59;100.00
37202;BME280;37799;52.390;6.136;2023-01-31T00:08:43;102314.06;;;2.56;100.00
37202;BME280;37799;52.390;6.136;2023-01-31T00:11:10;102322.22;;;2.44;100.00
37202;BME280;37799;52.390;6.136;2023-01-31T00:13:36;102316.34;;;2.47;100.00
37202;BME280;37799;52.390;6.136;2023-01-31T00:16:01;102310.88;;;2.34;100.00
37202;BME280;37799;52.390;6.136;2023-01-31T00:18:27;102314.13;;;2.30;100.00
37202;BME280;37799;52.390;6.136;2023-01-31T00:20:52;102311.22;;;2.47;100.00
37202;BME280;37799;52.390;6.136;2023-01-31T00:23:18;102302.03;;;2.52;100.00
37202;BME280;37799;52.390;6.136;2023-01-31T00:25:43;102294.81;;;2.39;100.00
37202;BME280;37799;52.390;6.136;2023-01-31T00:28:08;102295.34;;;2.28;100.00
37202;BME280;37799;52.390;6.136;2023-01-31T00:30:34;102293.91;;;2.36;100.00
37202;BME280;37799;52.390;6.136;2023-01-31T00:32:59;102282.69;;;2.33;100.00
37202;BME280;37799;52.390;6.136;2023-01-31T00:35:25;102290.03;;;2.22;100.00
37202;BME280;37799;52.390;6.136;2023-01-31T00:37:50;102272.88;;;2.47;100.00
37202;BME280;37799;52.390;6.136;2023-01-31T00:40:15;102276.03;;;2.38;100.00
37202;BME280;37799;52.390;6.136;2023-01-31T00:42:41;102278.56;;;2.36;100.00
37202;BME280;37799;52.390;6.136;2023-01-31T00:45:08;102285.50;;;2.41;100.00
37202;BME280;37799;52.390;6.136;2023-01-31T00:47:33;102280.53;;;2.47;100.00
37202;BME280;37799;52.390;6.136;2023-01-31T00:49:58;102288.41;;;2.24;100.00
37202;BME280;37799;52.390;6.136;2023-01-31T00:52:24;102272.34;;;2.57;100.00
37202;BME280;37799;52.390;6.136;2023-01-31T00:54:50;102273.03;;;2.23;100.00
37202;BME280;37799;52.390;6.136;2023-01-31T00:57:15;102272.78;;;2.15;100.00
37202;BME280;37799;52.390;6.136;2023-01-31T00:59:40;102274.88;;;2.28;100.00
37202;BME280;37799;52.390;6.136;2023-01-31T01:02:05;102272.72;;;2.41;100.00
37202;BME280;37799;52.390;6.136;2023-01-31T01:04:31;102278.00;;;2.47;100.00
37202;BME280;37799;52.390;6.136;2023-01-31T01:06:56;102261.56;;;2.39;100.00
37202;BME280;37799;52.390;6.136;2023-01-31T01:09:21;102252.34;;;2.44;100.00
37202;BME280;37799;52.390;6.136;2023-01-31T01:11:47;102262.81;;;2.51;100.00
37202;BME280;37799;52.390;6.136;2023-01-31T01:14:13;102262.63;;;2.74;100.00
37202;BME280;37799;52.390;6.136;2023-01-31T01:16:39;102249.06;;;2.76;100.00
37202;BME280;37799;52.390;6.136;2023-01-31T01:19:07;102257.41;;;2.71;100.00
37202;BME280;37799;52.390;6.136;2023-01-31T01:21:33;102261.13;;;2.82;100.00
37202;BME280;37799;52.390;6.136;2023-01-31T01:24:04;102255.94;;;2.79;100.00
37202;BME280;37799;52.390;6.136;2023-01-31T01:26:31;102260.16;;;2.77;100.00
37202;BME280;37799;52.390;6.136;2023-01-31T01:28:58;102267.84;;;2.78;100.00
37202;BME280;37799;52.390;6.136;2023-01-31T01:31:24;102263.50;;;2.74;100.00
37202;BME280;37799;52.390;6.136;2023-01-31T01:34:05;102266.28;;;2.83;100.00
37202;BME280;37799;52.390;6.136;2023-01-31T01:36:33;102262.94;;;2.86;100.00
37202;BME280;37799;52.390;6.136;2023-01-31T01:38:59;102271.06;;;2.71;100.00
37202;BME280;37799;52.390;6.136;2023-01-31T01:41:25;102275.22;;;2.67;100.00
37202;BME280;37799;52.390;6.136;2023-01-31T01:43:56;102278.63;;;2.68;100.00
37202;BME280;37799;52.390;6.136;2023-01-31T01:51:24;102276.47;;;2.52;100.00
37202;BME280;37799;52.390;6.136;2023-01-31T01:53:53;102268.88;;;2.55;100.00
37202;BME280;37799;52.390;6.136;2023-01-31T01:56:24;102279.38;;;2.64;100.00
37202;BME280;37799;52.390;6.136;2023-01-31T01:59:02;102281.19;;;2.68;100.00
37202;BME280;37799;52.390;6.136;2023-01-31T02:01:33;102277.88;;;2.42;100.00
37202;BME280;37799;52.390;6.136;2023-01-31T02:03:59;102278.78;;;2.44;100.00
37202;BME280;37799;52.390;6.136;2023-01-31T02:06:24;102276.09;;;2.68;100.00
37202;BME280;37799;52.390;6.136;2023-01-31T02:08:50;102284.16;;;2.82;100.00
37202;BME280;37799;52.390;6.136;2023-01-31T02:11:21;102265.72;;;2.93;100.00
37202;BME280;37799;52.390;6.136;2023-01-31T02:13:49;102266.06;;;3.06;100.00
37202;BME280;37799;52.390;6.136;2023-01-31T02:16:15;102271.97;;;3.03;100.00
37202;BME280;37799;52.390;6.136;2023-01-31T02:18:41;102264.75;;;2.88;100.00
37202;BME280;37799;52.390;6.136;2023-01-31T02:29:55;102250.22;;;3.19;100.00
37202;BME280;37799;52.390;6.136;2023-01-31T02:32:34;102248.97;;;3.36;100.00
37202;BME280;37799;52.390;6.136;2023-01-31T02:35:14;102241.56;;;3.47;100.00
37202;BME280;37799;52.390;6.136;2023-01-31T02:37:59;102233.34;;;3.25;100.00
37202;BME280;37799;52.390;6.136;2023-01-31T02:40:37;102225.09;;;3.37;100.00
37202;BME280;37799;52.390;6.136;2023-01-31T02:43:12;102230.78;;;3.59;100.00
37202;BME280;37799;52.390;6.136;2023-01-31T02:46:01;102222.19;;;3.57;100.00
37202;BME280;37799;52.390;6.136;2023-01-31T02:51:24;102208.44;;;3.53;100.00
37202;BME280;37799;52.390;6.136;2023-01-31T02:54:29;102217.00;;;3.53;100.00
37202;BME280;37799;52.390;6.136;2023-01-31T02:57:16;102215.94;;;3.80;100.00
37202;BME280;37799;52.390;6.136;2023-01-31T02:59:42;102212.25;;;3.69;100.00
37202;BME280;37799;52.390;6.136;2023-01-31T03:02:08;102203.53;;;3.62;100.00
37202;BME280;37799;52.390;6.136;2023-01-31T03:04:33;102199.78;;;3.84;100.00
37202;BME280;37799;52.390;6.136;2023-01-31T03:07:07;102189.69;;;3.90;100.00
37202;BME280;37799;52.390;6.136;2023-01-31T03:19:11;102198.94;;;4.21;100.00
37202;BME280;37799;52.390;6.136;2023-01-31T03:21:48;102199.75;;;4.19;100.00
37202;BME280;37799;52.390;6.136;2023-01-31T03:24:17;102195.19;;;4.05;100.00
37202;BME280;37799;52.390;6.136;2023-01-31T03:26:44;102198.00;;;4.18;100.00
37202;BME280;37799;52.390;6.136;2023-01-31T03:29:13;102195.50;;;4.21;100.00
37202;BME280;37799;52.390;6.136;2023-01-31T03:32:09;102198.81;;;4.17;100.00
37202;BME280;37799;52.390;6.136;2023-01-31T03:34:32;102202.16;;;4.12;100.00
37202;BME280;37799;52.390;6.136;2023-01-31T03:37:05;102204.09;;;4.23;100.00
37202;BME280;37799;52.390;6.136;2023-01-31T03:39:56;102197.03;;;4.12;100.00
37202;BME280;37799;52.390;6.136;2023-01-31T03:42:24;102202.09;;;4.09;100.00
37202;BME280;37799;52.390;6.136;2023-01-31T03:47:34;102199.88;;;4.25;100.00
37202;BME280;37799;52.390;6.136;2023-01-31T03:50:05;102197.47;;;4.32;100.00
37202;BME280;37799;52.390;6.136;2023-01-31T03:52:36;102198.97;;;4.23;100.00
37202;BME280;37799;52.390;6.136;2023-01-31T03:55:12;102199.88;;;4.25;100.00
37202;BME280;37799;52.390;6.136;2023-01-31T03:57:41;102191.59;;;4.38;100.00
37202;BME280;37799;52.390;6.136;2023-01-31T04:00:12;102193.97;;;4.29;100.00
37202;BME280;37799;52.390;6.136;2023-01-31T04:02:39;102192.16;;;4.25;100.00
37202;BME280;37799;52.390;6.136;2023-01-31T04:05:10;102188.81;;;4.29;100.00
37202;BME280;37799;52.390;6.136;2023-01-31T04:07:38;102187.31;;;4.37;100.00
37202;BME280;37799;52.390;6.136;2023-01-31T04:10:10;102183.66;;;4.26;100.00
37202;BME280;37799;52.390;6.136;2023-01-31T04:12:36;102185.06;;;4.52;100.00
37202;BME280;37799;52.390;6.136;2023-01-31T04:15:03;102169.50;;;4.43;100.00
37202;BME280;37799;52.390;6.136;2023-01-31T04:17:29;102169.72;;;4.55;100.00
37202;BME280;37799;52.390;6.136;2023-01-31T04:19:54;102168.13;;;4.60;100.00
37202;BME280;37799;52.390;6.136;2023-01-31T04:22:20;102155.31;;;4.62;100.00
37202;BME280;37799;52.390;6.136;2023-01-31T04:24:45;102156.03;;;4.55;100.00
37202;BME280;37799;52.390;6.136;2023-01-31T04:27:10;102149.28;;;4.58;100.00
37202;BME280;37799;52.390;6.136;2023-01-31T04:29:35;102147.84;;;4.72;100.00
37202;BME280;37799;52.390;6.136;2023-01-31T04:32:01;102159.22;;;4.87;100.00
37202;BME280;37799;52.390;6.136;2023-01-31T04:34:26;102150.22;;;4.63;100.00
37202;BME280;37799;52.390;6.136;2023-01-31T04:36:51;102138.88;;;4.52;100.00
37202;BME280;37799;52.390;6.136;2023-01-31T04:39:16;102150.28;;;4.66;100.00
37202;BME280;37799;52.390;6.136;2023-01-31T04:41:42;102141.94;;;4.78;100.00
37202;BME280;37799;52.390;6.136;2023-01-31T04:44:07;102140.91;;;4.68;100.00
37202;BME280;37799;52.390;6.136;2023-01-31T04:46:32;102143.53;;;4.71;100.00
37202;BME280;37799;52.390;6.136;2023-01-31T04:48:58;102133.25;;;4.70;100.00
37202;BME280;37799;52.390;6.136;2023-01-31T04:51:23;102138.50;;;4.78;100.00
37202;BME280;37799;52.390;6.136;2023-01-31T04:53:49;102125.41;;;4.62;100.00
37202;BME280;37799;52.390;6.136;2023-01-31T04:56:14;102111.75;;;4.63;100.00
37202;BME280;37799;52.390;6.136;2023-01-31T04:58:40;102106.88;;;4.79;100.00
37202;BME280;37799;52.390;6.136;2023-01-31T05:01:06;102104.16;;;4.69;100.00
37202;BME280;37799;52.390;6.136;2023-01-31T05:03:31;102091.50;;;4.80;100.00
37202;BME280;37799;52.390;6.136;2023-01-31T05:05:57;102096.56;;;4.76;100.00
37202;BME280;37799;52.390;6.136;2023-01-31T05:08:22;102101.00;;;4.84;100.00
37202;BME280;37799;52.390;6.136;2023-01-31T05:10:47;102097.34;;;4.70;100.00
37202;BME280;37799;52.390;6.136;2023-01-31T05:13:13;102088.91;;;4.79;100.00
37202;BME280;37799;52.390;6.136;2023-01-31T05:15:39;102089.75;;;4.78;100.00
37202;BME280;37799;52.390;6.136;2023-01-31T05:18:04;102079.41;;;4.71;100.00
37202;BME280;37799;52.390;6.136;2023-01-31T05:20:32;102077.69;;;4.70;100.00
37202;BME280;37799;52.390;6.136;2023-01-31T05:23:00;102085.59;;;4.83;100.00
37202;BME280;37799;52.390;6.136;2023-01-31T05:25:26;102067.84;;;4.95;100.00
37202;BME280;37799;52.390;6.136;2023-01-31T05:27:52;102067.75;;;4.92;100.00
37202;BME280;37799;52.390;6.136;2023-01-31T05:30:18;102073.00;;;4.98;100.00
37202;BME280;37799;52.390;6.136;2023-01-31T05:32:43;102077.50;;;5.10;100.00
37202;BME280;37799;52.390;6.136;2023-01-31T05:35:11;102069.59;;;4.99;100.00
37202;BME280;37799;52.390;6.136;2023-01-31T05:37:36;102069.81;;;5.11;100.00
37202;BME280;37799;52.390;6.136;2023-01-31T05:40:01;102067.28;;;5.14;100.00
37202;BME280;37799;52.390;6.136;2023-01-31T05:42:27;102056.00;;;5.06;100.00
37202;BME280;37799;52.390;6.136;2023-01-31T05:44:52;102053.63;;;5.17;100.00
37202;BME280;37799;52.390;6.136;2023-01-31T05:47:17;102052.91;;;5.25;100.00
37202;BME280;37799;52.390;6.136;2023-01-31T05:49:43;102050.22;;;5.18;100.00
37202;BME280;37799;52.390;6.136;2023-01-31T05:52:08;102058.06;;;5.25;100.00
37202;BME280;37799;52.390;6.136;2023-01-31T05:54:33;102066.72;;;5.33;100.00
37202;BME280;37799;52.390;6.136;2023-01-31T05:56:59;102063.41;;;5.41;100.00
37202;BME280;37799;52.390;6.136;2023-01-31T05:59:24;102054.81;;;5.37;100.00
37202;BME280;37799;52.390;6.136;2023-01-31T06:01:50;102051.38;;;5.37;100.00
37202;BME280;37799;52.390;6.136;2023-01-31T06:04:16;102048.66;;;5.27;100.00
37202;BME280;37799;52.390;6.136;2023-01-31T06:06:41;102047.97;;;5.38;100.00
37202;BME280;37799;52.390;6.136;2023-01-31T06:09:06;102059.19;;;5.44;100.00
37202;BME280;37799;52.390;6.136;2023-01-31T06:11:32;102057.22;;;5.28;100.00
37202;BME280;37799;52.390;6.136;2023-01-31T06:13:57;102046.34;;;5.46;100.00
37202;BME280;37799;52.390;6.136;2023-01-31T06:16:23;102059.19;;;5.44;100.00
37202;BME280;37799;52.390;6.136;2023-01-31T06:18:49;102053.13;;;5.41;100.00
37202;BME280;37799;52.390;6.136;2023-01-31T06:21:14;102050.56;;;5.41;100.00
37202;BME280;37799;52.390;6.136;2023-01-31T06:23:40;102040.09;;;5.27;100.00
37202;BME280;37799;52.390;6.136;2023-01-31T06:26:10;102025.59;;;5.30;100.00
37202;BME280;37799;52.390;6.136;2023-01-31T06:28:35;102030.06;;;5.45;100.00
37202;BME280;37799;52.390;6.136;2023-01-31T06:31:05;102029.28;;;5.48;100.00
37202;BME280;37799;52.390;6.136;2023-01-31T06:33:31;102033.41;;;5.37;100.00
37202;BME280;37799;52.390;6.136;2023-01-31T06:35:58;102020.63;;;5.43;100.00
37202;BME280;37799;52.390;6.136;2023-01-31T06:38:23;102027.31;;;5.33;100.00
37202;BME280;37799;52.390;6.136;2023-01-31T06:40:49;102033.50;;;5.44;100.00
37202;BME280;37799;52.390;6.136;2023-01-31T06:43:14;102017.88;;;5.30;100.00
37202;BME280;37799;52.390;6.136;2023-01-31T06:45:41;102017.09;;;5.35;100.00
37202;BME280;37799;52.390;6.136;2023-01-31T06:48:07;102027.44;;;5.41;100.00
37202;BME280;37799;52.390;6.136;2023-01-31T06:50:32;102026.66;;;5.46;100.00
37202;BME280;37799;52.390;6.136;2023-01-31T06:52:57;102012.81;;;5.35;100.00
37202;BME280;37799;52.390;6.136;2023-01-31T06:55:23;102016.16;;;5.29;100.00
37202;BME280;37799;52.390;6.136;2023-01-31T06:57:49;102012.72;;;5.29;100.00
37202;BME280;37799;52.390;6.136;2023-01-31T07:00:15;102009.31;;;5.30;100.00
37202;BME280;37799;52.390;6.136;2023-01-31T07:02:43;102005.88;;;5.29;100.00
37202;BME280;37799;52.390;6.136;2023-01-31T07:05:08;102005.91;;;5.31;100.00
37202;BME280;37799;52.390;6.136;2023-01-31T07:07:33;102010.19;;;5.30;100.00
37202;BME280;37799;52.390;6.136;2023-01-31T07:09:59;102007.56;;;5.26;100.00
37202;BME280;37799;52.390;6.136;2023-01-31T07:12:25;102001.75;;;5.41;100.00
37202;BME280;37799;52.390;6.136;2023-01-31T07:14:50;101997.47;;;5.40;100.00
37202;BME280;37799;52.390;6.136;2023-01-31T07:17:16;101995.56;;;5.25;100.00
37202;BME280;37799;52.390;6.136;2023-01-31T07:19:41;101992.19;;;5.29;100.00
37202;BME280;37799;52.390;6.136;2023-01-31T07:22:07;101987.16;;;5.37;100.00
37202;BME280;37799;52.390;6.136;2023-01-31T07:24:32;101995.75;;;5.40;100.00
37202;BME280;37799;52.390;6.136;2023-01-31T07:26:57;101988.00;;;5.36;100.00
37202;BME280;37799;52.390;6.136;2023-01-31T07:29:24;101982.78;;;5.29;100.00
37202;BME280;37799;52.390;6.136;2023-01-31T07:31:49;101980.19;;;5.28;100.00
37202;BME280;37799;52.390;6.136;2023-01-31T07:34:15;101983.59;;;5.27;100.00
37202;BME280;37799;52.390;6.136;2023-01-31T07:36:40;101981.19;;;5.38;100.00
37202;BME280;37799;52.390;6.136;2023-01-31T07:39:06;101976.03;;;5.36;100.00
37202;BME280;37799;52.390;6.136;2023-01-31T07:41:31;101982.06;;;5.41;100.00
37202;BME280;37799;52.390;6.136;2023-01-31T07:43:57;101988.28;;;5.57;100.00
37202;BME280;37799;52.390;6.136;2023-01-31T07:46:23;101986.47;;;5.48;100.00
37202;BME280;37799;52.390;6.136;2023-01-31T07:48:48;101982.94;;;5.42;100.00
37202;BME280;37799;52.390;6.136;2023-01-31T07:51:14;101971.25;;;5.65;100.00
37202;BME280;37799;52.390;6.136;2023-01-31T07:53:39;101954.00;;;5.56;100.00
37202;BME280;37799;52.390;6.136;2023-01-31T07:56:16;101947.94;;;5.48;100.00
37202;BME280;37799;52.390;6.136;2023-01-31T07:58:43;101950.47;;;5.47;100.00
37202;BME280;37799;52.390;6.136;2023-01-31T08:01:15;101948.91;;;5.59;100.00
37202;BME280;37799;52.390;6.136;2023-01-31T08:03:59;101949.03;;;5.70;100.00
37202;BME280;37799;52.390;6.136;2023-01-31T08:06:26;101947.25;;;5.61;100.00
37202;BME280;37799;52.390;6.136;2023-01-31T08:08:53;101937.88;;;5.67;100.00
37202;BME280;37799;52.390;6.136;2023-01-31T08:11:18;101944.72;;;5.66;100.00
37202;BME280;37799;52.390;6.136;2023-01-31T08:13:43;101944.81;;;5.74;100.00
37202;BME280;37799;52.390;6.136;2023-01-31T08:16:09;101944.72;;;5.66;100.00
37202;BME280;37799;52.390;6.136;2023-01-31T08:18:35;101942.22;;;5.72;100.00
37202;BME280;37799;52.390;6.136;2023-01-31T08:21:00;101934.75;;;5.92;100.00
37202;BME280;37799;52.390;6.136;2023-01-31T08:23:26;101942.47;;;5.90;100.00
37202;BME280;37799;52.390;6.136;2023-01-31T08:25:58;101941.63;;;5.95;100.00
37202;BME280;37799;52.390;6.136;2023-01-31T08:28:23;101945.91;;;5.93;100.00
37202;BME280;37799;52.390;6.136;2023-01-31T08:30:49;101932.22;;;5.97;100.00
37202;BME280;37799;52.390;6.136;2023-01-31T08:33:14;101937.47;;;6.03;100.00
37202;BME280;37799;52.390;6.136;2023-01-31T08:35:39;101935.72;;;6.02;100.00
37202;BME280;37799;52.390;6.136;2023-01-31T08:38:05;101934.09;;;6.10;100.00
37202;BME280;37799;52.390;6.136;2023-01-31T08:40:30;101922.81;;;5.99;100.00
37202;BME280;37799;52.390;6.136;2023-01-31T08:42:57;101930.63;;;6.08;100.00
37202;BME280;37799;52.390;6.136;2023-01-31T08:45:23;101919.50;;;6.10;100.00
37202;BME280;37799;52.390;6.136;2023-01-31T08:47:56;101915.34;;;6.23;100.00
37202;BME280;37799;52.390;6.136;2023-01-31T08:50:24;101914.47;;;6.18;100.00
37202;BME280;37799;52.390;6.136;2023-01-31T08:53:00;101918.00;;;6.29;100.00
37202;BME280;37799;52.390;6.136;2023-01-31T08:55:28;101914.53;;;6.26;100.00
37202;BME280;37799;52.390;6.136;2023-01-31T08:57:53;101911.13;;;6.27;100.00
37202;BME280;37799;52.390;6.136;2023-01-31T09:00:20;101912.09;;;6.39;100.00
37202;BME280;37799;52.390;6.136;2023-01-31T09:02:53;101918.03;;;6.37;100.00
37202;BME280;37799;52.390;6.136;2023-01-31T09:05:19;101900.88;;;6.33;100.00
37202;BME280;37799;52.390;6.136;2023-01-31T09:07:44;101904.47;;;6.52;100.00
37202;BME280;37799;52.390;6.136;2023-01-31T09:10:10;101921.63;;;6.54;100.00
37202;BME280;37799;52.390;6.136;2023-01-31T09:12:35;101918.19;;;6.54;100.00
37202;BME280;37799;52.390;6.136;2023-01-31T09:15:01;101930.94;;;6.38;100.00
37202;BME280;37799;52.390;6.136;2023-01-31T09:17:28;101938.66;;;6.40;100.00
37202;BME280;37799;52.390;6.136;2023-01-31T09:19:53;101935.31;;;6.50;100.00
37202;BME280;37799;52.390;6.136;2023-01-31T09:22:18;101925.75;;;6.35;100.00
37202;BME280;37799;52.390;6.136;2023-01-31T09:24:45;101939.47;;;6.37;100.00
37202;BME280;37799;52.390;6.136;2023-01-31T09:27:11;101931.81;;;6.40;100.00
37202;BME280;37799;52.390;6.136;2023-01-31T09:29:36;101916.41;;;6.43;100.00
37202;BME280;37799;52.390;6.136;2023-01-31T09:32:02;101910.50;;;6.55;100.00
37202;BME280;37799;52.390;6.136;2023-01-31T09:34:28;101893.38;;;6.62;100.00
37202;BME280;37799;52.390;6.136;2023-01-31T09:36:53;101888.19;;;6.56;100.00
37202;BME280;37799;52.390;6.136;2023-01-31T09:39:21;101893.44;;;6.68;100.00
37202;BME280;37799;52.390;6.136;2023-01-31T09:41:52;101896.09;;;6.80;100.00
37202;BME280;37799;52.390;6.136;2023-01-31T09:44:28;101880.56;;;6.68;100.00
37202;BME280;37799;52.390;6.136;2023-01-31T09:47:09;101879.78;;;6.78;100.00
37202;BME280;37799;52.390;6.136;2023-01-31T09:49:49;101879.78;;;6.78;100.00
37202;BME280;37799;52.390;6.136;2023-01-31T09:52:15;101871.19;;;6.79;100.00
37202;BME280;37799;52.390;6.136;2023-01-31T09:54:41;101873.81;;;6.87;100.00
37202;BME280;37799;52.390;6.136;2023-01-31T10:00:16;101870.38;;;6.89;100.00
37202;BME280;37799;52.390;6.136;2023-01-31T10:05:39;101885.09;;;7.08;100.00
37202;BME280;37799;52.390;6.136;2023-01-31T10:08:54;101872.28;;;7.19;100.00
37202;BME280;37799;52.390;6.136;2023-01-31T10:11:33;101861.97;;;7.19;100.00
37202;BME280;37799;52.390;6.136;2023-01-31T10:16:40;101868.00;;;7.27;100.00
37202;BME280;37799;52.390;6.136;2023-01-31T10:19:18;101871.47;;;7.34;100.00
37202;BME280;37799;52.390;6.136;2023-01-31T10:21:49;101872.34;;;7.39;100.00
37202;BME280;37799;52.390;6.136;2023-01-31T10:26:51;101876.59;;;7.28;100.00
37202;BME280;37799;52.390;6.136;2023-01-31T10:29:36;101861.16;;;7.31;100.00
37202;BME280;37799;52.390;6.136;2023-01-31T10:32:09;101862.88;;;7.38;100.00
37202;BME280;37799;52.390;6.136;2023-01-31T10:34:42;101854.25;;;7.27;100.00
37202;BME280;37799;52.390;6.136;2023-01-31T10:39:51;101861.91;;;7.15;100.00
37202;BME280;37799;52.390;6.136;2023-01-31T10:42:35;101861.06;;;7.11;100.00
37202;BME280;37799;52.390;6.136;2023-01-31T10:47:38;101855.88;;;7.03;100.00
37202;BME280;37799;52.390;6.136;2023-01-31T10:50:37;101843.88;;;7.10;100.00
37202;BME280;37799;52.390;6.136;2023-01-31T10:58:24;101854.19;;;7.13;100.00
37202;BME280;37799;52.390;6.136;2023-01-31T11:00:50;101851.66;;;7.16;100.00
37202;BME280;37799;52.390;6.136;2023-01-31T11:03:16;101860.16;;;7.03;100.00
37202;BME280;37799;52.390;6.136;2023-01-31T11:05:48;101866.19;;;7.03;100.00
37202;BME280;37799;52.390;6.136;2023-01-31T11:08:35;101861.06;;;7.14;100.00
37202;BME280;37799;52.390;6.136;2023-01-31T11:11:07;101859.34;;;7.15;100.00
37202;BME280;37799;52.390;6.136;2023-01-31T11:13:33;101861.97;;;7.18;100.00
37202;BME280;37799;52.390;6.136;2023-01-31T11:16:00;101855.06;;;7.14;100.00
37202;BME280;37799;52.390;6.136;2023-01-31T11:18:33;101857.66;;;7.17;100.00
37202;BME280;37799;52.390;6.136;2023-01-31T11:21:00;101858.44;;;7.02;100.00
37202;BME280;37799;52.390;6.136;2023-01-31T11:23:28;101845.56;;;7.00;100.00
37202;BME280;37799;52.390;6.136;2023-01-31T11:25:55;101847.25;;;6.91;100.00
37202;BME280;37799;52.390;6.136;2023-01-31T11:30:49;101837.81;;;6.97;100.00
37202;BME280;37799;52.390;6.136;2023-01-31T11:33:41;101830.88;;;6.84;100.00
37202;BME280;37799;52.390;6.136;2023-01-31T11:36:14;101827.47;;;6.87;100.00
37202;BME280;37799;52.390;6.136;2023-01-31T11:38:40;101823.97;;;6.75;100.00
37202;BME280;37799;52.390;6.136;2023-01-31T11:43:49;101825.72;;;6.78;100.00
37202;BME280;37799;52.390;6.136;2023-01-31T11:46:14;101807.66;;;6.73;100.00
37202;BME280;37799;52.390;6.136;2023-01-31T11:48:42;101809.38;;;6.73;100.00
37202;BME280;37799;52.390;6.136;2023-01-31T11:51:09;101811.06;;;6.71;100.00
37202;BME280;37799;52.390;6.136;2023-01-31T11:56:25;101800.84;;;6.85;100.00
37202;BME280;37799;52.390;6.136;2023-01-31T11:58:53;101799.13;;;6.85;100.00
37202;BME280;37799;52.390;6.136;2023-01-31T12:01:22;101799.13;;;6.85;100.00
37202;BME280;37799;52.390;6.136;2023-01-31T12:04:02;101799.13;;;6.79;100.00
37202;BME280;37799;52.390;6.136;2023-01-31T12:06:30;101795.75;;;6.97;100.00
37202;BME280;37799;52.390;6.136;2023-01-31T12:08:58;101792.31;;;6.96;100.00
37202;BME280;37799;52.390;6.136;2023-01-31T12:11:29;101790.59;;;6.95;100.00
37202;BME280;37799;52.390;6.136;2023-01-31T12:14:14;101779.50;;;7.04;100.00
37202;BME280;37799;52.390;6.136;2023-01-31T12:16:42;101784.59;;;6.96;100.00
37202;BME280;37799;52.390;6.136;2023-01-31T12:21:43;101775.25;;;7.21;100.00
37202;BME280;37799;52.390;6.136;2023-01-31T12:32:56;101763.31;;;7.55;100.00
37202;BME280;37799;52.390;6.136;2023-01-31T12:35:36;101759.03;;;7.69;100.00
37202;BME280;37799;52.390;6.136;2023-01-31T12:45:56;101740.94;;;7.94;100.00
37202;BME280;37799;52.390;6.136;2023-01-31T12:51:59;101742.69;;;7.98;100.00
37202;BME280;37799;52.390;6.136;2023-01-31T13:00:23;101722.88;;;8.21;100.00
37202;BME280;37799;52.390;6.136;2023-01-31T13:06:00;101727.13;;;8.44;100.00
37202;BME280;37799;52.390;6.136;2023-01-31T13:08:33;101724.56;;;8.47;100.00
37202;BME280;37799;52.390;6.136;2023-01-31T13:11:26;101721.06;;;8.63;100.00
37202;BME280;37799;52.390;6.136;2023-01-31T13:14:02;101731.31;;;8.81;100.00
37202;BME280;37799;52.390;6.136;2023-01-31T13:16:36;101724.38;;;8.90;100.00
37202;BME280;37799;52.390;6.136;2023-01-31T13:19:06;101735.59;;;8.89;100.00
37202;BME280;37799;52.390;6.136;2023-01-31T13:21:41;101733.75;;;9.12;100.00
37202;BME280;37799;52.390;6.136;2023-01-31T13:24:11;101734.56;;;9.17;100.00
37202;BME280;37799;52.390;6.136;2023-01-31T13:27:39;101734.63;;;9.06;100.00
37202;BME280;37799;52.390;6.136;2023-01-31T13:29:55;101737.19;;;9.14;100.00
37202;BME280;37799;52.390;6.136;2023-01-31T13:32:37;101739.72;;;9.19;100.00
37202;BME280;37799;52.390;6.136;2023-01-31T13:37:34;101742.22;;;9.32;100.00
37202;BME280;37799;52.390;6.136;2023-01-31T13:40:08;101744.78;;;9.35;100.00
37202;BME280;37799;52.390;6.136;2023-01-31T13:42:40;101750.78;;;9.37;100.00
37202;BME280;37799;52.390;6.136;2023-01-31T13:45:06;101735.25;;;9.46;100.00
37202;BME280;37799;52.390;6.136;2023-01-31T13:48:07;101750.78;;;9.43;100.00
37202;BME280;37799;52.390;6.136;2023-01-31T13:50:55;101754.31;;;9.24;100.00
37202;BME280;37799;52.390;6.136;2023-01-31T13:53:35;101757.00;;;9.10;100.00
37202;BME280;37799;52.390;6.136;2023-01-31T13:56:01;101748.41;;;9.11;100.00
37202;BME280;37799;52.390;6.136;2023-01-31T13:58:33;101764.72;;;9.18;100.00
37202;BME280;37799;52.390;6.136;2023-01-31T14:01:03;101758.72;;;9.14;100.00
37202;BME280;37799;52.390;6.136;2023-01-31T14:06:54;101776.81;;;9.13;100.00
37202;BME280;37799;52.390;6.136;2023-01-31T14:11:48;101786.28;;;9.08;100.00
37202;BME280;37799;52.390;6.136;2023-01-31T14:17:02;101788.94;;;8.93;100.00
37202;BME280;37799;52.390;6.136;2023-01-31T14:22:22;101800.19;;;8.79;100.00
37202;BME280;37799;52.390;6.136;2023-01-31T14:27:26;101797.56;;;8.82;100.00
37202;BME280;37799;52.390;6.136;2023-01-31T14:38:16;101801.03;;;8.80;100.00
37202;BME280;37799;52.390;6.136;2023-01-31T14:41:02;101806.22;;;8.78;100.00
37202;BME280;37799;52.390;6.136;2023-01-31T14:44:12;101816.56;;;8.74;100.00
37202;BME280;37799;52.390;6.136;2023-01-31T14:46:49;101810.53;;;8.67;100.00
37202;BME280;37799;52.390;6.136;2023-01-31T14:54:55;101820.88;;;8.67;100.00
37202;BME280;37799;52.390;6.136;2023-01-31T14:57:29;101819.13;;;8.86;100.00
37202;BME280;37799;52.390;6.136;2023-01-31T15:00:00;101818.28;;;8.67;100.00
37202;BME280;37799;52.390;6.136;2023-01-31T15:07:25;101828.63;;;8.55;100.00